sensor_id;sensor_type;location;lat;lon;timestamp;pressure;altitude;pressure_sealevel;temperature;humidity
36354;BME280;22383;51.114;13.666;2024-02-26T00:01:14;67454.41;;;2.34;100.00
36354;BME280;22383;51.114;13.666;2024-02-26T00:03:41;67462.66;;;2.39;100.00
36354;BME280;22383;51.114;13.666;2024-02-26T00:06:09;67460.25;;;2.41;100.00
36354;BME280;22383;51.114;13.666;2024-02-26T00:08:36;67462.66;;;2.39;100.00
36354;BME280;22383;51.114;13.666;2024-02-26T00:11:03;67463.22;;;2.39;100.00
36354;BME280;22383;51.114;13.666;2024-02-26T00:13:31;67464.00;;;2.42;100.00
36354;BME280;22383;51.114;13.666;2024-02-26T00:15:58;67456.66;;;2.36;100.00
36354;BME280;22383;51.114;13.666;2024-02-26T00:18:25;67453.28;;;2.33;100.00
36354;BME280;22383;51.114;13.666;2024-02-26T00:20:53;67460.41;;;2.37;100.00
36354;BME280;22383;51.114;13.666;2024-02-26T00:23:20;67451.03;;;2.31;100.00
36354;BME280;22383;51.114;13.666;2024-02-26T00:25:47;67442.44;;;2.27;100.00
36354;BME280;22383;51.114;13.666;2024-02-26T00:28:14;67442.94;;;2.21;100.00
36354;BME280;22383;51.114;13.666;2024-02-26T00:30:41;67438.66;;;2.19;100.00
36354;BME280;22383;51.114;13.666;2024-02-26T00:33:09;67427.94;;;2.10;100.00
36354;BME280;22383;51.114;13.666;2024-02-26T00:35:37;67365.22;;;1.95;100.00
36354;BME280;22383;51.114;13.666;2024-02-26T00:38:04;67400.94;;;1.85;100.00
36354;BME280;22383;51.114;13.666;2024-02-26T00:40:31;67395.84;;;1.80;100.00
36354;BME280;22383;51.114;13.666;2024-02-26T00:42:58;67385.94;;;1.74;100.00
36354;BME280;22383;51.114;13.666;2024-02-26T00:45:27;67385.16;;;1.70;100.00
36354;BME280;22383;51.114;13.666;2024-02-26T00:47:55;67379.00;;;1.65;100.00
36354;BME280;22383;51.114;13.666;2024-02-26T00:50:22;67371.50;;;1.63;100.00
36354;BME280;22383;51.114;13.666;2024-02-26T00:52:50;67378.22;;;1.62;100.00
36354;BME280;22383;51.114;13.666;2024-02-26T00:55:17;67365.13;;;1.55;100.00
36354;BME280;22383;51.114;13.666;2024-02-26T00:57:44;67372.22;;;1.59;100.00
36354;BME280;22383;51.114;13.666;2024-02-26T01:00:12;67376.53;;;1.60;100.00
36354;BME280;22383;51.114;13.666;2024-02-26T01:02:40;67364.53;;;1.54;100.00
36354;BME280;22383;51.114;13.666;2024-02-26T01:05:09;67369.19;;;1.54;100.00
36354;BME280;22383;51.114;13.666;2024-02-26T01:07:39;67363.44;;;1.53;100.00
36354;BME280;22383;51.114;13.666;2024-02-26T01:10:07;67364.91;;;1.52;100.00
36354;BME280;22383;51.114;13.666;2024-02-26T01:12:34;67380.88;;;1.69;100.00
36354;BME280;22383;51.114;13.666;2024-02-26T01:15:02;67380.09;;;1.66;100.00
36354;BME280;22383;51.114;13.666;2024-02-26T01:17:31;67358.72;;;1.46;100.00
36354;BME280;22383;51.114;13.666;2024-02-26T01:19:58;67348.00;;;1.37;100.00
36354;BME280;22383;51.114;13.666;2024-02-26T01:22:25;67357.81;;;1.48;100.00
36354;BME280;22383;51.114;13.666;2024-02-26T01:24:52;67372.22;;;1.59;100.00
36354;BME280;22383;51.114;13.666;2024-02-26T01:27:19;67386.50;;;1.74;100.00
36354;BME280;22383;51.114;13.666;2024-02-26T01:29:46;67396.84;;;1.86;100.00
36354;BME280;22383;51.114;13.666;2024-02-26T01:32:13;67418.38;;;2.01;100.00
36354;BME280;22383;51.114;13.666;2024-02-26T01:34:40;67416.53;;;2.04;100.00
36354;BME280;22383;51.114;13.666;2024-02-26T01:37:08;67427.38;;;2.09;100.00
36354;BME280;22383;51.114;13.666;2024-02-26T01:39:35;67441.25;;;2.19;100.00
36354;BME280;22383;51.114;13.666;2024-02-26T01:42:03;67443.72;;;2.24;100.00
36354;BME280;22383;51.114;13.666;2024-02-26T01:44:30;67446.72;;;2.29;100.00
36354;BME280;22383;51.114;13.666;2024-02-26T01:46:58;67459.47;;;2.38;100.00
36354;BME280;22383;51.114;13.666;2024-02-26T01:49:25;67454.97;;;2.34;100.00
36354;BME280;22383;51.114;13.666;2024-02-26T01:51:52;67462.28;;;2.41;100.00
36354;BME280;22383;51.114;13.666;2024-02-26T01:54:20;67464.34;;;2.40;100.00
36354;BME280;22383;51.114;13.666;2024-02-26T01:56:48;67473.56;;;2.51;100.00
36354;BME280;22383;51.114;13.666;2024-02-26T01:59:16;67467.94;;;2.46;100.00
36354;BME280;22383;51.114;13.666;2024-02-26T02:01:44;67465.09;;;2.43;100.00
36354;BME280;22383;51.114;13.666;2024-02-26T02:04:15;67467.00;;;2.48;100.00
36354;BME280;22383;51.114;13.666;2024-02-26T02:06:45;67470.19;;;2.48;100.00
36354;BME280;22383;51.114;13.666;2024-02-26T02:09:12;67465.09;;;2.43;100.00
36354;BME280;22383;51.114;13.666;2024-02-26T02:11:39;67460.59;;;2.39;100.00
36354;BME280;22383;51.114;13.666;2024-02-26T02:14:07;67452.91;;;2.35;100.00
36354;BME280;22383;51.114;13.666;2024-02-26T02:16:34;67476.19;;;2.51;100.00
36354;BME280;22383;51.114;13.666;2024-02-26T02:19:01;67478.63;;;2.56;100.00
36354;BME280;22383;51.114;13.666;2024-02-26T02:21:28;67476.78;;;2.59;100.00
36354;BME280;22383;51.114;13.666;2024-02-26T02:23:56;67467.38;;;2.45;100.00
36354;BME280;22383;51.114;13.666;2024-02-26T02:26:23;67458.78;;;2.42;100.00
36354;BME280;22383;51.114;13.666;2024-02-26T02:28:50;67466.25;;;2.44;100.00
36354;BME280;22383;51.114;13.666;2024-02-26T02:31:17;67455.75;;;2.37;100.00
36354;BME280;22383;51.114;13.666;2024-02-26T02:33:44;67462.28;;;2.41;100.00
36354;BME280;22383;51.114;13.666;2024-02-26T02:36:12;67447.09;;;2.27;100.00
36354;BME280;22383;51.114;13.666;2024-02-26T02:38:49;67442.59;;;2.23;100.00
36354;BME280;22383;51.114;13.666;2024-02-26T02:41:19;67437.72;;;2.21;100.00
36354;BME280;22383;51.114;13.666;2024-02-26T02:43:46;67433.78;;;2.17;100.00
36354;BME280;22383;51.114;13.666;2024-02-26T02:46:14;67439.41;;;2.22;100.00
36354;BME280;22383;51.114;13.666;2024-02-26T02:48:41;67441.47;;;2.22;100.00
36354;BME280;22383;51.114;13.666;2024-02-26T02:51:09;67449.34;;;2.29;100.00
36354;BME280;22383;51.114;13.666;2024-02-26T02:53:36;67441.69;;;2.24;100.00
36354;BME280;22383;51.114;13.666;2024-02-26T02:56:04;67430.41;;;2.14;100.00
36354;BME280;22383;51.114;13.666;2024-02-26T02:58:31;67426.81;;;2.08;100.00
36354;BME280;22383;51.114;13.666;2024-02-26T03:00:59;67445.22;;;2.23;100.00
36354;BME280;22383;51.114;13.666;2024-02-26T03:03:28;67444.06;;;2.22;100.00
36354;BME280;22383;51.114;13.666;2024-02-26T03:05:56;67447.09;;;2.27;100.00
36354;BME280;22383;51.114;13.666;2024-02-26T03:08:23;67444.47;;;2.27;100.00
36354;BME280;22383;51.114;13.666;2024-02-26T03:10:52;67442.44;;;2.27;100.00
36354;BME280;22383;51.114;13.666;2024-02-26T03:13:20;67444.06;;;2.22;100.00
36354;BME280;22383;51.114;13.666;2024-02-26T03:15:47;67442.38;;;2.20;100.00
36354;BME280;22383;51.114;13.666;2024-02-26T03:18:14;67431.16;;;2.17;100.00
36354;BME280;22383;51.114;13.666;2024-02-26T03:20:42;67437.31;;;2.16;100.00
36354;BME280;22383;51.114;13.666;2024-02-26T03:23:09;67441.47;;;2.22;100.00
36354;BME280;22383;51.114;13.666;2024-02-26T03:25:39;67439.75;;;2.20;100.00
36354;BME280;22383;51.114;13.666;2024-02-26T03:28:07;67447.44;;;2.25;100.00
36354;BME280;22383;51.114;13.666;2024-02-26T03:30:34;67443.34;;;2.26;100.00
36354;BME280;22383;51.114;13.666;2024-02-26T03:33:01;67436.03;;;2.19;100.00
36354;BME280;22383;51.114;13.666;2024-02-26T03:35:30;67427.94;;;2.10;100.00
36354;BME280;22383;51.114;13.666;2024-02-26T03:37:57;67394.84;;;2.20;100.00
36354;BME280;22383;51.114;13.666;2024-02-26T03:40:24;67420.84;;;2.05;100.00
36354;BME280;22383;51.114;13.666;2024-02-26T03:42:51;67418.38;;;2.01;100.00
36354;BME280;22383;51.114;13.666;2024-02-26T03:45:20;67414.84;;;2.02;100.00
36354;BME280;22383;51.114;13.666;2024-02-26T03:47:48;67423.66;;;2.08;100.00
36354;BME280;22383;51.114;13.666;2024-02-26T03:50:16;67410.69;;;1.96;100.00
36354;BME280;22383;51.114;13.666;2024-02-26T03:52:43;67408.09;;;1.96;100.00
36354;BME280;22383;51.114;13.666;2024-02-26T03:55:10;67435.28;;;2.16;100.00
36354;BME280;22383;51.114;13.666;2024-02-26T03:57:37;67428.91;;;2.15;100.00
36354;BME280;22383;51.114;13.666;2024-02-26T04:00:05;67430.19;;;2.12;100.00
36354;BME280;22383;51.114;13.666;2024-02-26T04:02:36;67446.53;;;2.26;100.00
36354;BME280;22383;51.114;13.666;2024-02-26T04:05:04;67435.47;;;2.19;100.00
36354;BME280;22383;51.114;13.666;2024-02-26T04:07:31;67446.53;;;2.26;100.00
36354;BME280;22383;51.114;13.666;2024-02-26T04:09:58;67430.75;;;2.12;100.00
36354;BME280;22383;51.114;13.666;2024-02-26T04:12:27;67421.75;;;2.04;100.00
36354;BME280;22383;51.114;13.666;2024-02-26T04:14:54;67423.66;;;2.08;100.00
36354;BME280;22383;51.114;13.666;2024-02-26T04:17:21;67430.75;;;2.12;100.00
36354;BME280;22383;51.114;13.666;2024-02-26T04:19:48;67411.47;;;1.99;100.00
36354;BME280;22383;51.114;13.666;2024-02-26T04:22:15;67411.41;;;1.92;100.00
36354;BME280;22383;51.114;13.666;2024-02-26T04:24:43;67417.81;;;2.00;100.00
36354;BME280;22383;51.114;13.666;2024-02-26T04:27:10;67415.56;;;1.98;100.00
36354;BME280;22383;51.114;13.666;2024-02-26T04:29:37;67416.69;;;1.99;100.00
36354;BME280;22383;51.114;13.666;2024-02-26T04:32:04;67421.03;;;2.08;100.00
36354;BME280;22383;51.114;13.666;2024-02-26T04:34:32;67424.56;;;2.06;100.00
36354;BME280;22383;51.114;13.666;2024-02-26T04:36:59;67425.91;;;2.10;100.00
36354;BME280;22383;51.114;13.666;2024-02-26T04:39:26;67439.56;;;2.18;100.00
36354;BME280;22383;51.114;13.666;2024-02-26T04:41:54;67431.31;;;2.13;100.00
36354;BME280;22383;51.114;13.666;2024-02-26T04:44:22;67421.81;;;2.11;100.00
36354;BME280;22383;51.114;13.666;2024-02-26T04:46:49;67434.72;;;2.16;100.00
36354;BME280;22383;51.114;13.666;2024-02-26T04:49:16;67434.13;;;2.15;100.00
36354;BME280;22383;51.114;13.666;2024-02-26T04:51:43;67431.31;;;2.13;100.00
36354;BME280;22383;51.114;13.666;2024-02-26T04:54:11;67430.56;;;2.10;100.00
36354;BME280;22383;51.114;13.666;2024-02-26T04:56:38;67425.91;;;2.10;100.00
36354;BME280;22383;51.114;13.666;2024-02-26T04:59:05;67424.56;;;2.06;100.00
36354;BME280;22383;51.114;13.666;2024-02-26T05:01:32;67425.91;;;2.10;100.00
36354;BME280;22383;51.114;13.666;2024-02-26T05:03:59;67441.47;;;2.22;100.00
36354;BME280;22383;51.114;13.666;2024-02-26T05:06:27;67436.38;;;2.17;100.00
36354;BME280;22383;51.114;13.666;2024-02-26T05:08:55;67434.72;;;2.16;100.00
36354;BME280;22383;51.114;13.666;2024-02-26T05:11:22;67423.66;;;2.08;100.00
36354;BME280;22383;51.114;13.666;2024-02-26T05:13:49;67429.63;;;2.11;100.00
36354;BME280;22383;51.114;13.666;2024-02-26T05:16:16;67417.47;;;2.02;100.00
36354;BME280;22383;51.114;13.666;2024-02-26T05:18:43;67415.91;;;1.96;100.00
36354;BME280;22383;51.114;13.666;2024-02-26T05:21:11;67409.78;;;1.98;100.00
36354;BME280;22383;51.114;13.666;2024-02-26T05:23:38;67405.28;;;1.94;100.00
36354;BME280;22383;51.114;13.666;2024-02-26T05:26:05;67420.63;;;2.03;100.00
36354;BME280;22383;51.114;13.666;2024-02-26T05:28:32;67414.28;;;2.02;100.00
36354;BME280;22383;51.114;13.666;2024-02-26T05:31:00;67399.22;;;1.83;100.00
36354;BME280;22383;51.114;13.666;2024-02-26T05:33:27;67396.06;;;1.83;100.00
36354;BME280;22383;51.114;13.666;2024-02-26T05:35:54;67374.69;;;1.63;100.00
36354;BME280;22383;51.114;13.666;2024-02-26T05:38:21;67351.41;;;1.40;100.00
36354;BME280;22383;51.114;13.666;2024-02-26T05:40:49;67341.28;;;1.30;100.00
36354;BME280;22383;51.114;13.666;2024-02-26T05:43:19;67358.16;;;1.46;100.00
36354;BME280;22383;51.114;13.666;2024-02-26T05:45:46;67377.28;;;1.63;100.00
36354;BME280;22383;51.114;13.666;2024-02-26T05:48:13;67387.63;;;1.75;100.00
36354;BME280;22383;51.114;13.666;2024-02-26T05:50:40;67391.00;;;1.78;100.00
36354;BME280;22383;51.114;13.666;2024-02-26T05:53:07;67411.81;;;1.97;100.00
36354;BME280;22383;51.114;13.666;2024-02-26T05:55:35;67401.47;;;1.85;100.00
36354;BME280;22383;51.114;13.666;2024-02-26T05:58:02;67408.81;;;1.92;100.00
36354;BME280;22383;51.114;13.666;2024-02-26T06:00:29;67410.50;;;1.94;100.00
36354;BME280;22383;51.114;13.666;2024-02-26T06:02:56;67426.81;;;2.08;100.00
36354;BME280;22383;51.114;13.666;2024-02-26T06:05:24;67444.84;;;2.25;100.00
36354;BME280;22383;51.114;13.666;2024-02-26T06:07:51;67459.47;;;2.38;100.00
36354;BME280;22383;51.114;13.666;2024-02-26T06:10:18;67463.25;;;2.46;100.00
36354;BME280;22383;51.114;13.666;2024-02-26T06:12:48;67471.16;;;2.54;100.00
36354;BME280;22383;51.114;13.666;2024-02-26T06:15:15;67485.38;;;2.62;100.00
36354;BME280;22383;51.114;13.666;2024-02-26T06:17:43;67498.19;;;2.78;100.00
36354;BME280;22383;51.114;13.666;2024-02-26T06:20:10;67510.53;;;2.82;100.00
36354;BME280;22383;51.114;13.666;2024-02-26T06:22:40;67525.59;;;3.01;100.00
36354;BME280;22383;51.114;13.666;2024-02-26T06:25:08;67538.91;;;3.11;100.00
36354;BME280;22383;51.114;13.666;2024-02-26T06:27:35;67542.09;;;3.11;100.00
36354;BME280;22383;51.114;13.666;2024-02-26T06:30:03;67547.56;;;3.21;100.00
36354;BME280;22383;51.114;13.666;2024-02-26T06:32:30;67555.25;;;3.26;100.00
36354;BME280;22383;51.114;13.666;2024-02-26T06:34:57;67563.53;;;3.38;100.00
36354;BME280;22383;51.114;13.666;2024-02-26T06:37:25;67586.81;;;3.54;100.00
36354;BME280;22383;51.114;13.666;2024-02-26T06:39:52;67586.59;;;3.52;100.00
36354;BME280;22383;51.114;13.666;2024-02-26T06:42:19;67593.22;;;3.63;100.00
36354;BME280;22383;51.114;13.666;2024-02-26T06:44:46;67601.69;;;3.70;100.00
36354;BME280;22383;51.114;13.666;2024-02-26T06:47:14;67609.72;;;3.73;100.00
36354;BME280;22383;51.114;13.666;2024-02-26T06:49:41;67604.84;;;3.71;100.00
36354;BME280;22383;51.114;13.666;2024-02-26T06:52:08;67616.50;;;3.79;100.00
36354;BME280;22383;51.114;13.666;2024-02-26T06:54:35;67635.72;;;4.04;100.00
36354;BME280;22383;51.114;13.666;2024-02-26T06:57:02;67660.88;;;4.24;100.00
36354;BME280;22383;51.114;13.666;2024-02-26T06:59:30;67680.41;;;4.40;100.00
36354;BME280;22383;51.114;13.666;2024-02-26T07:01:57;67675.53;;;4.38;100.00
36354;BME280;22383;51.114;13.666;2024-02-26T07:04:24;67668.78;;;4.31;100.00
36354;BME280;22383;51.114;13.666;2024-02-26T07:06:52;67647.16;;;4.09;100.00
36354;BME280;22383;51.114;13.666;2024-02-26T07:09:19;67630.44;;;3.96;100.00
36354;BME280;22383;51.114;13.666;2024-02-26T07:11:46;67631.00;;;3.97;100.00
36354;BME280;22383;51.114;13.666;2024-02-26T07:14:13;67627.59;;;3.94;100.00
36354;BME280;22383;51.114;13.666;2024-02-26T07:16:40;67641.31;;;4.02;100.00
36354;BME280;22383;51.114;13.666;2024-02-26T07:19:07;67641.91;;;4.09;100.00
36354;BME280;22383;51.114;13.666;2024-02-26T07:21:35;67665.75;;;4.26;100.00
36354;BME280;22383;51.114;13.666;2024-02-26T07:24:02;67676.09;;;4.38;100.00
36354;BME280;22383;51.114;13.666;2024-02-26T07:26:29;67670.28;;;4.30;100.00
36354;BME280;22383;51.114;13.666;2024-02-26T07:28:57;67676.31;;;4.41;100.00
36354;BME280;22383;51.114;13.666;2024-02-26T07:31:25;67690.41;;;4.53;100.00
36354;BME280;22383;51.114;13.666;2024-02-26T07:33:52;67698.47;;;4.56;100.00
36354;BME280;22383;51.114;13.666;2024-02-26T07:36:20;67712.38;;;4.66;100.00
36354;BME280;22383;51.114;13.666;2024-02-26T07:38:47;67711.66;;;4.70;100.00
36354;BME280;22383;51.114;13.666;2024-02-26T07:41:16;67720.13;;;4.78;100.00
36354;BME280;22383;51.114;13.666;2024-02-26T07:43:43;67739.09;;;4.93;100.00
36354;BME280;22383;51.114;13.666;2024-02-26T07:46:11;67749.44;;;5.05;100.00
36354;BME280;22383;51.114;13.666;2024-02-26T07:48:38;67761.66;;;5.14;100.00
36354;BME280;22383;51.114;13.666;2024-02-26T07:51:06;67766.19;;;5.18;100.00
36354;BME280;22383;51.114;13.666;2024-02-26T07:53:33;67772.81;;;5.28;100.00
36354;BME280;22383;51.114;13.666;2024-02-26T07:56:00;67798.97;;;5.55;100.00
36354;BME280;22383;51.114;13.666;2024-02-26T07:58:28;67840.16;;;5.85;100.00
36354;BME280;22383;51.114;13.666;2024-02-26T08:00:55;67867.69;;;6.15;100.00
36354;BME280;22383;51.114;13.666;2024-02-26T08:03:22;67881.63;;;6.25;100.00
36354;BME280;22383;51.114;13.666;2024-02-26T08:05:51;67885.94;;;6.27;100.00
36354;BME280;22383;51.114;13.666;2024-02-26T08:08:19;67847.38;;;5.96;100.00
36354;BME280;22383;51.114;13.666;2024-02-26T08:10:46;67807.25;;;5.60;100.00
36354;BME280;22383;51.114;13.666;2024-02-26T08:13:13;67796.69;;;5.45;100.00
36354;BME280;22383;51.114;13.666;2024-02-26T08:15:40;67792.56;;;5.46;100.00
36354;BME280;22383;51.114;13.666;2024-02-26T08:18:08;67787.66;;;5.37;100.00
36354;BME280;22383;51.114;13.666;2024-02-26T08:20:35;67810.81;;;5.58;100.00
36354;BME280;22383;51.114;13.666;2024-02-26T08:23:02;67810.25;;;5.58;100.00
36354;BME280;22383;51.114;13.666;2024-02-26T08:25:30;67802.91;;;5.51;100.00
36354;BME280;22383;51.114;13.666;2024-02-26T08:27:57;67819.25;;;5.66;100.00
36354;BME280;22383;51.114;13.666;2024-02-26T08:30:24;67814.38;;;5.64;100.00
36354;BME280;22383;51.114;13.666;2024-02-26T08:32:51;67807.63;;;5.58;100.00
36354;BME280;22383;51.114;13.666;2024-02-26T08:35:19;67861.28;;;6.06;100.00
36354;BME280;22383;51.114;13.666;2024-02-26T08:37:47;67865.81;;;6.11;100.00
36354;BME280;22383;51.114;13.666;2024-02-26T08:40:15;67900.66;;;6.40;100.00
36354;BME280;22383;51.114;13.666;2024-02-26T08:42:42;67924.75;;;6.67;100.00
36354;BME280;22383;51.114;13.666;2024-02-26T08:45:10;67930.03;;;6.67;100.00
36354;BME280;22383;51.114;13.666;2024-02-26T08:47:38;67920.41;;;6.58;100.00
36354;BME280;22383;51.114;13.666;2024-02-26T08:50:06;67908.75;;;6.50;100.00
36354;BME280;22383;51.114;13.666;2024-02-26T08:52:33;67982.78;;;7.17;100.00
36354;BME280;22383;51.114;13.666;2024-02-26T08:55:00;67963.75;;;7.02;100.00
36354;BME280;22383;51.114;13.666;2024-02-26T08:57:27;67963.00;;;6.99;100.00
36354;BME280;22383;51.114;13.666;2024-02-26T08:59:55;67966.59;;;7.05;100.00
36354;BME280;22383;51.114;13.666;2024-02-26T09:02:22;68064.03;;;7.88;100.00
36354;BME280;22383;51.114;13.666;2024-02-26T09:04:49;68030.09;;;7.57;100.00
36354;BME280;22383;51.114;13.666;2024-02-26T09:07:18;68073.84;;;8.00;100.00
36354;BME280;22383;51.114;13.666;2024-02-26T09:09:45;68133.84;;;8.54;100.00
36354;BME280;22383;51.114;13.666;2024-02-26T09:12:12;68112.69;;;8.32;100.00
36354;BME280;22383;51.114;13.666;2024-02-26T09:14:40;68078.75;;;8.02;100.00
36354;BME280;22383;51.114;13.666;2024-02-26T09:17:07;68082.53;;;8.10;100.00
36354;BME280;22383;51.114;13.666;2024-02-26T09:19:34;68072.72;;;7.99;100.00
36354;BME280;22383;51.114;13.666;2024-02-26T09:22:02;68130.25;;;8.48;100.00
36354;BME280;22383;51.114;13.666;2024-02-26T09:24:29;68135.19;;;8.58;100.00
36354;BME280;22383;51.114;13.666;2024-02-26T09:26:56;68143.66;;;8.65;100.00
36354;BME280;22383;51.114;13.666;2024-02-26T09:29:24;68163.84;;;8.81;100.00
36354;BME280;22383;51.114;13.666;2024-02-26T09:31:51;68159.50;;;8.80;100.00
36354;BME280;22383;51.114;13.666;2024-02-26T09:34:18;68183.66;;;8.99;100.00
36354;BME280;22383;51.114;13.666;2024-02-26T09:36:45;68184.81;;;9.00;100.00
36354;BME280;22383;51.114;13.666;2024-02-26T09:39:12;68118.56;;;8.40;100.00
36354;BME280;22383;51.114;13.666;2024-02-26T09:41:44;68113.06;;;8.38;100.00
36354;BME280;22383;51.114;13.666;2024-02-26T09:44:13;68113.44;;;8.36;100.00
36354;BME280;22383;51.114;13.666;2024-02-26T09:46:42;68122.72;;;8.46;100.00
36354;BME280;22383;51.114;13.666;2024-02-26T09:49:10;68105.91;;;8.33;100.00
36354;BME280;22383;51.114;13.666;2024-02-26T09:51:39;68149.50;;;8.66;100.00
36354;BME280;22383;51.114;13.666;2024-02-26T09:54:07;68110.06;;;8.32;100.00
36354;BME280;22383;51.114;13.666;2024-02-26T09:56:39;68129.13;;;8.47;100.00
36354;BME280;22383;51.114;13.666;2024-02-26T09:59:22;68111.97;;;8.37;100.00
36354;BME280;22383;51.114;13.666;2024-02-26T10:01:50;68112.50;;;8.30;100.00
36354;BME280;22383;51.114;13.666;2024-02-26T10:04:18;68135.34;;;8.53;100.00
36354;BME280;22383;51.114;13.666;2024-02-26T10:06:46;68158.78;;;8.77;100.00
36354;BME280;22383;51.114;13.666;2024-02-26T10:09:15;68164.03;;;8.77;100.00
36354;BME280;22383;51.114;13.666;2024-02-26T10:11:43;68166.31;;;8.86;100.00
36354;BME280;22383;51.114;13.666;2024-02-26T10:14:10;68188.38;;;9.06;100.00
36354;BME280;22383;51.114;13.666;2024-02-26T10:16:39;68210.66;;;9.21;100.00
36354;BME280;22383;51.114;13.666;2024-02-26T10:19:06;68213.50;;;9.24;100.00
36354;BME280;22383;51.114;13.666;2024-02-26T10:21:34;68152.16;;;8.73;100.00
36354;BME280;22383;51.114;13.666;2024-02-26T10:24:01;68140.25;;;8.55;100.00
36354;BME280;22383;51.114;13.666;2024-02-26T10:26:28;68132.16;;;8.52;100.00
36354;BME280;22383;51.114;13.666;2024-02-26T10:28:59;68137.06;;;8.55;100.00
36354;BME280;22383;51.114;13.666;2024-02-26T10:31:26;68170.06;;;8.87;100.00
36354;BME280;22383;51.114;13.666;2024-02-26T10:33:55;68180.28;;;8.96;100.00
36354;BME280;22383;51.114;13.666;2024-02-26T10:36:26;68209.72;;;9.23;100.00
36354;BME280;22383;51.114;13.666;2024-02-26T10:39:13;68254.47;;;9.63;100.00
36354;BME280;22383;51.114;13.666;2024-02-26T10:41:41;68227.09;;;9.36;100.00
36354;BME280;22383;51.114;13.666;2024-02-26T10:44:12;68226.34;;;9.40;100.00
36354;BME280;22383;51.114;13.666;2024-02-26T10:46:46;68223.31;;;9.35;100.00
36354;BME280;22383;51.114;13.666;2024-02-26T10:49:15;68242.94;;;9.51;100.00
36354;BME280;22383;51.114;13.666;2024-02-26T10:51:55;68205.38;;;9.21;100.00
36354;BME280;22383;51.114;13.666;2024-02-26T10:54:26;68200.09;;;9.14;100.00
36354;BME280;22383;51.114;13.666;2024-02-26T10:56:56;68223.50;;;9.38;100.00
36354;BME280;22383;51.114;13.666;2024-02-26T10:59:24;68201.78;;;9.16;100.00
36354;BME280;22383;51.114;13.666;2024-02-26T11:01:54;68223.88;;;9.36;100.00
36354;BME280;22383;51.114;13.666;2024-02-26T11:04:25;68175.19;;;8.92;100.00
36354;BME280;22383;51.114;13.666;2024-02-26T11:06:57;68199.16;;;9.16;100.00
36354;BME280;22383;51.114;13.666;2024-02-26T11:09:24;68239.00;;;9.47;100.00
36354;BME280;22383;51.114;13.666;2024-02-26T11:11:52;68223.50;;;9.38;100.00
36354;BME280;22383;51.114;13.666;2024-02-26T11:14:23;68217.09;;;9.30;100.00
36354;BME280;22383;51.114;13.666;2024-02-26T11:16:55;68187.06;;;9.02;100.00
36354;BME280;22383;51.114;13.666;2024-02-26T11:19:24;68212.19;;;9.27;100.00
36354;BME280;22383;51.114;13.666;2024-02-26T11:21:52;68225.41;;;9.35;100.00
36354;BME280;22383;51.114;13.666;2024-02-26T11:24:19;68235.75;;;9.46;100.00
36354;BME280;22383;51.114;13.666;2024-02-26T11:26:51;68182.34;;;8.96;100.00
36354;BME280;22383;51.114;13.666;2024-02-26T11:29:51;68163.28;;;8.81;100.00
36354;BME280;22383;51.114;13.666;2024-02-26T11:32:19;68159.50;;;8.80;100.00
36354;BME280;22383;51.114;13.666;2024-02-26T11:34:46;68162.34;;;8.75;100.00
36354;BME280;22383;51.114;13.666;2024-02-26T11:37:16;68195.94;;;9.08;100.00
36354;BME280;22383;51.114;13.666;2024-02-26T11:39:45;68218.41;;;9.33;100.00
36354;BME280;22383;51.114;13.666;2024-02-26T11:42:16;68198.56;;;9.08;100.00
36354;BME280;22383;51.114;13.666;2024-02-26T11:44:43;68217.66;;;9.30;100.00
36354;BME280;22383;51.114;13.666;2024-02-26T11:47:14;68274.66;;;9.87;100.00
36354;BME280;22383;51.114;13.666;2024-02-26T11:49:45;68261.84;;;9.70;100.00
36354;BME280;22383;51.114;13.666;2024-02-26T11:52:13;68229.75;;;9.43;100.00
36354;BME280;22383;51.114;13.666;2024-02-26T11:57:30;68228.78;;;9.38;100.00
36354;BME280;22383;51.114;13.666;2024-02-26T12:00:12;68237.47;;;9.48;100.00
36354;BME280;22383;51.114;13.666;2024-02-26T12:02:44;68242.38;;;9.50;100.00
36354;BME280;22383;51.114;13.666;2024-02-26T12:05:13;68249.34;;;9.59;100.00
36354;BME280;22383;51.114;13.666;2024-02-26T12:08:09;68244.66;;;9.52;100.00
36354;BME280;22383;51.114;13.666;2024-02-26T12:10:39;68206.13;;;9.17;100.00
36354;BME280;22383;51.114;13.666;2024-02-26T12:13:11;68192.34;;;9.09;100.00
36354;BME280;22383;51.114;13.666;2024-02-26T12:18:19;68176.50;;;8.95;100.00
36354;BME280;22383;51.114;13.666;2024-02-26T12:21:01;68168.75;;;8.83;100.00
36354;BME280;22383;51.114;13.666;2024-02-26T12:23:29;68176.13;;;8.90;100.00
36354;BME280;22383;51.114;13.666;2024-02-26T12:26:00;68174.41;;;8.88;100.00
36354;BME280;22383;51.114;13.666;2024-02-26T12:28:32;68165.00;;;8.82;100.00
36354;BME280;22383;51.114;13.666;2024-02-26T12:30:59;68187.44;;;9.00;100.00
36354;BME280;22383;51.114;13.666;2024-02-26T12:33:27;68188.97;;;9.06;100.00
36354;BME280;22383;51.114;13.666;2024-02-26T12:35:56;68216.50;;;9.29;100.00
36354;BME280;22383;51.114;13.666;2024-02-26T12:38:24;68235.97;;;9.49;100.00
36354;BME280;22383;51.114;13.666;2024-02-26T12:40:51;68237.47;;;9.48;100.00
36354;BME280;22383;51.114;13.666;2024-02-26T12:43:18;68243.50;;;9.51;100.00
36354;BME280;22383;51.114;13.666;2024-02-26T12:45:45;68199.72;;;9.16;100.00
36354;BME280;22383;51.114;13.666;2024-02-26T12:48:14;68184.63;;;8.98;100.00
36354;BME280;22383;51.114;13.666;2024-02-26T12:50:46;68195.38;;;9.07;100.00
36354;BME280;22383;51.114;13.666;2024-02-26T12:53:17;68219.16;;;9.29;100.00
36354;BME280;22383;51.114;13.666;2024-02-26T12:55:44;68215.94;;;9.28;100.00
36354;BME280;22383;51.114;13.666;2024-02-26T12:58:12;68225.41;;;9.35;100.00
36354;BME280;22383;51.114;13.666;2024-02-26T13:00:40;68212.19;;;9.27;100.00